createdAt,value
2019-01-23T00:00:42.480Z,0
2019-01-23T00:01:42.535Z,0
2019-01-23T00:02:42.517Z,0
2019-01-23T00:03:42.462Z,0
2019-01-23T00:04:42.505Z,0
2019-01-23T00:05:42.435Z,0
2019-01-23T00:06:42.506Z,0
2019-01-23T00:07:42.508Z,0
2019-01-23T00:08:42.436Z,0
2019-01-23T00:09:42.518Z,0
2019-01-23T00:10:42.469Z,0
2019-01-23T00:11:42.471Z,0
2019-01-23T00:12:42.397Z,0
2019-01-23T00:13:42.471Z,0
2019-01-23T00:14:42.421Z,0
2019-01-23T00:15:42.388Z,0
2019-01-23T00:16:42.374Z,0
2019-01-23T00:17:42.424Z,0
2019-01-23T00:18:42.391Z,0
2019-01-23T00:19:42.500Z,0
2019-01-23T00:20:42.501Z,0
2019-01-23T00:21:42.497Z,0
2019-01-23T00:22:42.385Z,0
2019-01-23T00:23:42.373Z,0
2019-01-23T00:24:42.391Z,0
2019-01-23T00:25:42.411Z,0
2019-01-23T00:26:42.389Z,0
2019-01-23T00:27:42.516Z,0
2019-01-23T00:28:42.556Z,0
2019-01-23T00:29:42.391Z,0
2019-01-23T00:30:42.419Z,0
2019-01-23T00:31:42.476Z,0
2019-01-23T00:32:42.524Z,0
2019-01-23T00:33:42.543Z,0
2019-01-23T00:34:42.484Z,0
2019-01-23T00:35:42.510Z,0
2019-01-23T00:36:42.545Z,0
2019-01-23T00:37:42.544Z,0
2019-01-23T00:38:42.543Z,0
2019-01-23T00:39:42.489Z,0
2019-01-23T00:40:42.471Z,0
2019-01-23T00:41:42.462Z,0
2019-01-23T00:42:42.464Z,0
2019-01-23T00:43:42.534Z,0
2019-01-23T00:44:42.594Z,0
2019-01-23T00:45:42.533Z,0
2019-01-23T00:46:42.476Z,0
2019-01-23T00:47:42.582Z,0
2019-01-23T00:48:42.471Z,0
2019-01-23T00:49:42.536Z,0
2019-01-23T00:50:42.484Z,0
2019-01-23T00:51:42.548Z,0
2019-01-23T00:52:42.496Z,0
2019-01-23T00:53:42.555Z,0
2019-01-23T00:54:42.552Z,0
2019-01-23T00:55:42.483Z,0
2019-01-23T00:56:42.518Z,0
2019-01-23T00:57:42.647Z,0
2019-01-23T00:58:49.017Z,0
2019-01-23T00:59:42.576Z,0
2019-01-23T01:00:42.564Z,0
2019-01-23T01:01:42.487Z,0
2019-01-23T01:02:42.566Z,0
2019-01-23T01:03:42.578Z,0
2019-01-23T01:04:42.528Z,0
2019-01-23T01:05:42.570Z,0
2019-01-23T01:06:42.486Z,0
2019-01-23T01:07:42.565Z,0
2019-01-23T01:08:42.521Z,0
2019-01-23T01:09:42.494Z,0
2019-01-23T01:10:42.510Z,0
2019-01-23T01:11:42.523Z,0
2019-01-23T01:12:42.491Z,0
2019-01-23T01:13:42.486Z,0
2019-01-23T01:14:42.459Z,0
2019-01-23T01:15:42.454Z,0
2019-01-23T01:16:42.498Z,0
2019-01-23T01:17:42.554Z,0
2019-01-23T01:18:42.450Z,0
2019-01-23T01:19:42.556Z,0
2019-01-23T01:20:42.522Z,0
2019-01-23T01:21:42.488Z,0
2019-01-23T01:22:42.562Z,0
2019-01-23T01:23:42.498Z,0
2019-01-23T01:24:42.562Z,0
2019-01-23T01:25:42.598Z,0
2019-01-23T01:26:42.495Z,0
2019-01-23T01:27:42.494Z,0
2019-01-23T01:28:42.564Z,0
2019-01-23T01:29:42.518Z,0
2019-01-23T01:30:42.566Z,0
2019-01-23T01:31:42.507Z,0
2019-01-23T01:32:42.568Z,0
2019-01-23T01:33:42.497Z,0
2019-01-23T01:34:42.571Z,0
2019-01-23T01:35:42.497Z,0
2019-01-23T01:36:42.573Z,0
2019-01-23T01:37:42.500Z,0
2019-01-23T01:38:42.503Z,0
2019-01-23T01:39:42.572Z,0
2019-01-23T01:40:42.499Z,0
2019-01-23T01:41:42.591Z,0
2019-01-23T01:42:42.515Z,0
2019-01-23T01:43:42.476Z,0
2019-01-23T01:44:42.583Z,0
2019-01-23T01:45:42.532Z,0
2019-01-23T01:46:42.551Z,0
2019-01-23T01:47:42.626Z,0
2019-01-23T01:48:42.472Z,0
2019-01-23T01:49:42.602Z,0
2019-01-23T01:50:42.591Z,0
2019-01-23T01:51:42.602Z,0
2019-01-23T01:52:42.600Z,0
2019-01-23T01:53:42.554Z,0
2019-01-23T01:54:42.541Z,0
2019-01-23T01:55:42.595Z,0
2019-01-23T01:56:42.606Z,0
2019-01-23T01:57:42.618Z,0
2019-01-23T01:58:42.488Z,0
2019-01-23T01:59:42.609Z,0
2019-01-23T02:00:42.537Z,0
2019-01-23T02:01:42.569Z,0
2019-01-23T02:02:42.558Z,0
2019-01-23T02:03:42.491Z,0
2019-01-23T02:04:42.550Z,0
2019-01-23T02:05:42.534Z,0
2019-01-23T02:06:42.449Z,0
2019-01-23T02:07:42.487Z,0
2019-01-23T02:08:42.445Z,0
2019-01-23T02:09:45.556Z,0
2019-01-23T02:10:42.500Z,0
2019-01-23T02:11:42.616Z,0
2019-01-23T02:12:42.609Z,0
2019-01-23T02:13:42.602Z,0
2019-01-23T02:14:42.498Z,0
2019-01-23T02:15:42.543Z,0
2019-01-23T02:16:42.610Z,0
2019-01-23T02:17:42.551Z,0
2019-01-23T02:18:42.538Z,0
2019-01-23T02:19:42.539Z,0
2019-01-23T02:20:42.538Z,0
2019-01-23T02:21:42.543Z,0
2019-01-23T02:22:42.566Z,0
2019-01-23T02:23:42.563Z,0
2019-01-23T02:24:42.541Z,0
2019-01-23T02:25:42.640Z,0
2019-01-23T02:26:42.627Z,0
2019-01-23T02:27:42.618Z,0
2019-01-23T02:28:42.544Z,0
2019-01-23T02:29:42.639Z,0
2019-01-23T02:30:42.629Z,0
2019-01-23T02:31:42.615Z,0
2019-01-23T02:32:42.549Z,0
2019-01-23T02:33:42.559Z,0
2019-01-23T02:34:42.553Z,0
2019-01-23T02:35:42.574Z,0
2019-01-23T02:36:42.555Z,0
2019-01-23T02:37:42.552Z,0
2019-01-23T02:38:42.626Z,0
2019-01-23T02:39:42.594Z,0
2019-01-23T02:40:42.652Z,0
2019-01-23T02:41:42.627Z,0
2019-01-23T02:42:42.567Z,0
2019-01-23T02:43:42.585Z,0
2019-01-23T02:44:42.560Z,0
2019-01-23T02:45:42.573Z,0
2019-01-23T02:46:42.559Z,0
2019-01-23T02:47:42.639Z,0
2019-01-23T02:48:42.634Z,0
2019-01-23T02:49:42.635Z,0
2019-01-23T02:50:42.586Z,0
2019-01-23T02:51:42.584Z,0
2019-01-23T02:52:42.498Z,0
2019-01-23T02:53:42.514Z,0
2019-01-23T02:54:42.616Z,0
2019-01-23T02:55:42.525Z,0
2019-01-23T02:56:42.608Z,0
2019-01-23T02:57:42.577Z,0
2019-01-23T02:58:42.579Z,0
2019-01-23T02:59:42.588Z,0
2019-01-23T03:00:42.527Z,0
2019-01-23T03:01:42.641Z,0
2019-01-23T03:02:42.606Z,0
2019-01-23T03:03:42.589Z,0
2019-01-23T03:04:42.569Z,0
2019-01-23T03:05:42.572Z,0
2019-01-23T03:06:42.577Z,0
2019-01-23T03:07:42.570Z,0
2019-01-23T03:08:42.653Z,0
2019-01-23T03:09:42.667Z,0
2019-01-23T03:10:42.607Z,0
2019-01-23T03:11:42.640Z,0
2019-01-23T03:12:42.565Z,0
2019-01-23T03:13:42.639Z,0
2019-01-23T03:14:42.583Z,0
2019-01-23T03:15:42.638Z,0
2019-01-23T03:16:42.638Z,0
2019-01-23T03:17:42.642Z,0
2019-01-23T03:18:42.641Z,0
2019-01-23T03:19:42.573Z,0
2019-01-23T03:20:42.642Z,0
2019-01-23T03:21:42.601Z,0
2019-01-23T03:22:42.679Z,0
2019-01-23T03:23:42.600Z,0
2019-01-23T03:24:42.631Z,0
2019-01-23T03:25:42.662Z,0
2019-01-23T03:26:42.673Z,0
2019-01-23T03:27:42.679Z,0
2019-01-23T03:28:42.589Z,0
2019-01-23T03:29:42.674Z,0
2019-01-23T03:30:42.593Z,0
2019-01-23T03:31:42.593Z,0
2019-01-23T03:32:42.635Z,0
2019-01-23T03:33:42.597Z,0
2019-01-23T03:34:42.561Z,0
2019-01-23T03:35:42.662Z,0
2019-01-23T03:36:42.676Z,0
2019-01-23T03:37:42.603Z,0
2019-01-23T03:38:42.593Z,0
2019-01-23T03:39:42.600Z,0
2019-01-23T03:40:42.633Z,0
2019-01-23T03:41:42.657Z,0
2019-01-23T03:42:42.591Z,0
2019-01-23T03:43:42.662Z,0
2019-01-23T03:44:42.601Z,0
2019-01-23T03:45:42.658Z,0
2019-01-23T03:46:42.590Z,0
2019-01-23T03:47:42.728Z,0
2019-01-23T03:48:42.593Z,0
2019-01-23T03:49:42.661Z,0
2019-01-23T03:50:42.616Z,0
2019-01-23T03:51:42.663Z,0
2019-01-23T03:52:42.602Z,0
2019-01-23T03:53:42.667Z,0
2019-01-23T03:54:42.603Z,0
2019-01-23T03:55:42.665Z,0
2019-01-23T03:57:42.605Z,0
2019-01-23T03:58:42.668Z,0
2019-01-23T03:59:42.597Z,0
2019-01-23T04:00:42.668Z,0
2019-01-23T04:01:42.598Z,0
2019-01-23T04:02:42.538Z,0
2019-01-23T04:03:42.650Z,0
2019-01-23T04:04:42.537Z,0
2019-01-23T04:05:42.599Z,0
2019-01-23T04:06:42.640Z,0
2019-01-23T04:07:42.539Z,0
2019-01-23T04:08:42.658Z,0
2019-01-23T04:09:42.583Z,0
2019-01-23T04:10:42.536Z,0
2019-01-23T04:11:42.640Z,0
2019-01-23T04:12:42.633Z,0
2019-01-23T04:13:42.693Z,0
2019-01-23T04:14:42.696Z,0
2019-01-23T04:15:42.649Z,0
2019-01-23T04:16:42.693Z,0
2019-01-23T04:17:42.701Z,0
2019-01-23T04:18:42.696Z,0
2019-01-23T04:19:42.716Z,0
2019-01-23T04:20:42.642Z,0
2019-01-23T04:21:42.700Z,0
2019-01-23T04:22:42.718Z,0
2019-01-23T04:23:42.624Z,0
2019-01-23T04:24:42.715Z,0
2019-01-23T04:25:42.656Z,0
2019-01-23T04:26:42.698Z,0
2019-01-23T04:27:42.627Z,0
2019-01-23T04:28:42.727Z,0
2019-01-23T04:29:42.629Z,0
2019-01-23T04:30:42.633Z,0
2019-01-23T04:31:42.602Z,0
2019-01-23T04:32:42.569Z,0
2019-01-23T04:33:42.696Z,0
2019-01-23T04:34:42.611Z,0
2019-01-23T04:35:42.597Z,0
2019-01-23T04:36:42.594Z,0
2019-01-23T04:37:42.819Z,0
2019-01-23T04:38:42.604Z,0
2019-01-23T04:39:42.646Z,0
2019-01-23T04:40:42.659Z,0
2019-01-23T04:41:42.660Z,0
2019-01-23T04:42:42.644Z,0
2019-01-23T04:43:42.726Z,0
2019-01-23T04:44:42.706Z,0
2019-01-23T04:45:42.698Z,0
2019-01-23T04:46:42.681Z,0
2019-01-23T04:47:42.722Z,0
2019-01-23T04:48:42.660Z,0
2019-01-23T04:49:42.644Z,0
2019-01-23T04:50:42.724Z,0
2019-01-23T04:51:42.732Z,0
2019-01-23T04:52:42.650Z,0
2019-01-23T04:53:42.680Z,0
2019-01-23T04:54:42.723Z,0
2019-01-23T04:55:42.646Z,0
2019-01-23T04:56:42.711Z,0
2019-01-23T04:57:42.651Z,0
2019-01-23T04:58:42.606Z,0
2019-01-23T04:59:46.817Z,0
2019-01-23T05:00:42.741Z,0
2019-01-23T05:01:42.682Z,0
2019-01-23T05:02:42.728Z,0
2019-01-23T05:03:42.730Z,0
2019-01-23T05:04:42.729Z,0
2019-01-23T05:05:42.615Z,0
2019-01-23T05:06:42.743Z,0
2019-01-23T05:07:42.728Z,0
2019-01-23T05:08:42.624Z,0
2019-01-23T05:09:42.782Z,0
2019-01-23T05:10:42.734Z,0
2019-01-23T05:11:42.606Z,0
2019-01-23T05:12:42.674Z,0
2019-01-23T05:13:42.655Z,0
2019-01-23T05:14:42.627Z,0
2019-01-23T05:15:42.624Z,0
2019-01-23T05:16:42.714Z,0
2019-01-23T05:17:42.716Z,0
2019-01-23T05:18:42.690Z,0
2019-01-23T05:19:42.721Z,0
2019-01-23T05:20:42.714Z,0
2019-01-23T05:21:42.743Z,0
2019-01-23T05:22:42.750Z,0
2019-01-23T05:23:42.745Z,0
2019-01-23T05:24:42.738Z,0
2019-01-23T05:25:42.794Z,0
2019-01-23T05:26:42.686Z,0
2019-01-23T05:27:42.697Z,0
2019-01-23T05:28:42.670Z,0
2019-01-23T05:29:42.753Z,0
2019-01-23T05:30:42.686Z,0
2019-01-23T05:31:42.639Z,0
2019-01-23T05:32:42.616Z,0
2019-01-23T05:33:42.725Z,0
2019-01-23T05:34:42.602Z,0
2019-01-23T05:35:42.732Z,0
2019-01-23T05:36:42.665Z,0
2019-01-23T05:37:42.627Z,0
2019-01-23T05:38:42.641Z,0
2019-01-23T05:39:42.704Z,0
2019-01-23T05:40:42.738Z,0
2019-01-23T05:41:42.733Z,0
2019-01-23T05:42:42.670Z,0
2019-01-23T05:43:42.642Z,0
2019-01-23T05:44:42.728Z,0
2019-01-23T05:45:42.734Z,0
2019-01-23T05:46:42.733Z,0
2019-01-23T05:47:42.687Z,0
2019-01-23T05:48:42.691Z,0
2019-01-23T05:49:42.743Z,0
2019-01-23T05:50:42.740Z,0
2019-01-23T05:51:42.654Z,0
2019-01-23T05:52:42.681Z,0
2019-01-23T05:53:42.681Z,0
2019-01-23T05:54:42.751Z,0
2019-01-23T05:55:42.685Z,0
2019-01-23T05:56:42.754Z,0
2019-01-23T05:57:42.681Z,0
2019-01-23T05:58:42.752Z,0
2019-01-23T05:59:42.686Z,0
2019-01-23T06:00:42.763Z,0
2019-01-23T06:01:42.683Z,0
2019-01-23T06:02:42.658Z,0
2019-01-23T06:03:42.656Z,0
2019-01-23T06:04:42.662Z,0
2019-01-23T06:05:42.696Z,0
2019-01-23T06:06:42.689Z,0
2019-01-23T06:07:42.695Z,0
2019-01-23T06:08:42.760Z,0
2019-01-23T06:09:42.677Z,0
2019-01-23T06:10:42.692Z,0
2019-01-23T06:11:42.702Z,0
2019-01-23T06:12:42.668Z,0
2019-01-23T06:13:42.698Z,0
2019-01-23T06:14:42.746Z,0
2019-01-23T06:15:42.618Z,0
2019-01-23T06:16:42.625Z,0
2019-01-23T06:17:42.710Z,0
2019-01-23T06:18:42.721Z,0
2019-01-23T06:19:42.656Z,0
2019-01-23T06:20:42.725Z,0
2019-01-23T06:21:42.661Z,0
2019-01-23T06:22:42.699Z,0
2019-01-23T06:23:42.773Z,0
2019-01-23T06:24:42.834Z,0
2019-01-23T06:25:42.698Z,0
2019-01-23T06:26:42.784Z,0
2019-01-23T06:27:42.711Z,0
2019-01-23T06:28:42.778Z,0
2019-01-23T06:29:42.709Z,0
2019-01-23T06:30:42.775Z,0
2019-01-23T06:31:42.741Z,0
2019-01-23T06:32:42.717Z,0
2019-01-23T06:33:42.781Z,0
2019-01-23T06:34:42.720Z,0
2019-01-23T06:35:42.724Z,0
2019-01-23T06:36:42.803Z,0
2019-01-23T06:37:42.719Z,0
2019-01-23T06:38:42.717Z,0
2019-01-23T06:39:42.803Z,0
2019-01-23T06:40:42.725Z,0
2019-01-23T06:41:42.722Z,0
2019-01-23T06:42:42.720Z,0
2019-01-23T06:43:42.720Z,0
2019-01-23T06:44:42.716Z,0
2019-01-23T06:45:42.787Z,0
2019-01-23T06:46:42.718Z,0
2019-01-23T06:47:42.786Z,0
2019-01-23T06:48:42.744Z,0
2019-01-23T06:49:42.791Z,0
2019-01-23T06:50:42.726Z,0
2019-01-23T06:51:42.792Z,0
2019-01-23T06:52:42.730Z,0
2019-01-23T06:53:42.747Z,0
2019-01-23T06:54:42.809Z,0
2019-01-23T06:55:42.731Z,0
2019-01-23T06:56:42.762Z,0
2019-01-23T06:57:42.810Z,0
2019-01-23T06:58:42.737Z,0
2019-01-23T06:59:42.793Z,0
2019-01-23T07:00:42.736Z,0
2019-01-23T07:01:42.849Z,5
2019-01-23T07:02:42.818Z,5
2019-01-23T07:03:42.740Z,5
2019-01-23T07:04:42.814Z,5
2019-01-23T07:05:42.741Z,5
2019-01-23T07:06:42.808Z,5
2019-01-23T07:07:42.759Z,5
2019-01-23T07:08:42.823Z,5
2019-01-23T07:09:42.776Z,5
2019-01-23T07:10:42.821Z,11
2019-01-23T07:12:42.757Z,11
2019-01-23T07:13:42.703Z,11
2019-01-23T07:14:42.816Z,11
2019-01-23T07:15:42.761Z,11
2019-01-23T07:16:42.836Z,16
2019-01-23T07:17:42.825Z,16
2019-01-23T07:18:42.788Z,16
2019-01-23T07:19:42.748Z,16
2019-01-23T07:20:42.768Z,22
2019-01-23T07:21:42.747Z,22
2019-01-23T07:22:42.824Z,22
2019-01-23T07:23:42.826Z,22
2019-01-23T07:24:42.828Z,28
2019-01-23T07:25:42.828Z,28
2019-01-23T07:26:42.828Z,28
2019-01-23T07:27:42.771Z,28
2019-01-23T07:28:49.006Z,28
2019-01-23T07:29:42.841Z,28
2019-01-23T07:30:42.726Z,33
2019-01-23T07:31:42.833Z,33
2019-01-23T07:32:42.769Z,33
2019-01-23T07:33:42.756Z,33
2019-01-23T07:34:42.828Z,39
2019-01-23T07:35:42.839Z,39
2019-01-23T07:36:42.832Z,39
2019-01-23T07:37:42.855Z,39
2019-01-23T07:38:42.761Z,45
2019-01-23T07:39:42.791Z,45
2019-01-23T07:40:42.779Z,45
2019-01-23T07:41:42.836Z,45
2019-01-23T07:42:42.798Z,50
2019-01-23T07:43:42.768Z,50
2019-01-23T07:44:42.837Z,50
2019-01-23T07:45:42.776Z,56
2019-01-23T07:46:42.845Z,56
2019-01-23T07:47:42.767Z,56
2019-01-23T07:48:42.897Z,56
2019-01-23T07:49:42.840Z,61
2019-01-23T07:50:42.781Z,61
2019-01-23T07:51:42.809Z,61
2019-01-23T07:52:42.864Z,67
2019-01-23T07:53:42.866Z,67
2019-01-23T07:54:42.789Z,73
2019-01-23T07:55:42.851Z,73
2019-01-23T07:56:42.777Z,73
2019-01-23T07:57:42.848Z,73
2019-01-23T07:58:42.790Z,73
2019-01-23T07:59:42.846Z,78
2019-01-23T08:00:42.819Z,78
2019-01-23T08:01:42.787Z,78
2019-01-23T08:02:42.795Z,78
2019-01-23T08:03:42.811Z,84
2019-01-23T08:04:42.883Z,84
2019-01-23T08:05:42.812Z,90
2019-01-23T08:06:42.852Z,90
2019-01-23T08:07:42.793Z,90
2019-01-23T08:08:42.875Z,90
2019-01-23T08:09:42.879Z,95
2019-01-23T08:10:42.866Z,95
2019-01-23T08:11:42.865Z,95
2019-01-23T08:12:42.748Z,101
2019-01-23T08:13:42.743Z,106
2019-01-23T08:14:42.842Z,106
2019-01-23T08:15:42.728Z,106
2019-01-23T08:16:42.834Z,106
2019-01-23T08:17:42.838Z,106
2019-01-23T08:18:42.724Z,106
2019-01-23T08:19:42.845Z,112
2019-01-23T08:20:42.848Z,112
2019-01-23T08:21:42.752Z,112
2019-01-23T08:22:42.864Z,112
2019-01-23T08:23:42.793Z,112
2019-01-23T08:24:42.870Z,112
2019-01-23T08:25:42.884Z,118
2019-01-23T08:26:42.870Z,118
2019-01-23T08:27:42.792Z,123
2019-01-23T08:28:42.869Z,123
2019-01-23T08:29:42.804Z,129
2019-01-23T08:30:42.794Z,135
2019-01-23T08:31:42.867Z,135
2019-01-23T08:32:42.795Z,140
2019-01-23T08:33:42.759Z,151
2019-01-23T08:34:42.820Z,157
2019-01-23T08:35:42.768Z,163
2019-01-23T08:36:42.756Z,168
2019-01-23T08:37:42.744Z,168
2019-01-23T08:38:42.851Z,174
2019-01-23T08:39:42.772Z,180
2019-01-23T08:40:42.825Z,191
2019-01-23T08:41:42.741Z,202
2019-01-23T08:42:42.816Z,208
2019-01-23T08:43:42.807Z,219
2019-01-23T08:44:42.875Z,219
2019-01-23T08:45:42.815Z,230
2019-01-23T08:46:42.810Z,241
2019-01-23T08:47:42.876Z,253
2019-01-23T08:48:42.805Z,270
2019-01-23T08:49:42.875Z,281
2019-01-23T08:50:42.811Z,292
2019-01-23T08:51:42.812Z,298
2019-01-23T08:52:42.754Z,292
2019-01-23T08:53:42.750Z,298
2019-01-23T08:54:42.801Z,303
2019-01-23T08:55:42.785Z,315
2019-01-23T08:56:42.772Z,320
2019-01-23T08:57:42.832Z,326
2019-01-23T08:58:42.946Z,331
2019-01-23T08:59:42.782Z,343
2019-01-23T09:00:45.944Z,343
2019-01-23T09:01:42.877Z,343
2019-01-23T09:02:42.820Z,331
2019-01-23T09:03:42.876Z,315
2019-01-23T09:04:42.881Z,309
2019-01-23T09:05:42.888Z,303
2019-01-23T09:06:42.878Z,292
2019-01-23T09:07:42.888Z,292
2019-01-23T09:08:42.883Z,292
2019-01-23T09:09:42.812Z,303
2019-01-23T09:10:42.908Z,303
2019-01-23T09:11:42.889Z,303
2019-01-23T09:12:42.786Z,320
2019-01-23T09:13:42.835Z,326
2019-01-23T09:14:42.875Z,326
2019-01-23T09:15:42.883Z,326
2019-01-23T09:16:42.834Z,331
2019-01-23T09:17:42.876Z,331
2019-01-23T09:18:42.855Z,331
2019-01-23T09:19:42.776Z,326
2019-01-23T09:20:42.877Z,326
2019-01-23T09:21:42.880Z,331
2019-01-23T09:22:42.905Z,337
2019-01-23T09:23:42.835Z,331
2019-01-23T09:24:42.834Z,331
2019-01-23T09:25:49.499Z,331
2019-01-23T09:26:42.835Z,326
2019-01-23T09:27:42.831Z,315
2019-01-23T09:28:42.913Z,315
2019-01-23T09:29:42.907Z,315
2019-01-23T09:30:42.937Z,320
2019-01-23T09:31:42.841Z,331
2019-01-23T09:32:42.841Z,331
2019-01-23T09:33:42.914Z,343
2019-01-23T09:34:42.843Z,354
2019-01-23T09:35:42.846Z,388
2019-01-23T09:36:42.849Z,433
2019-01-23T09:37:42.843Z,472
2019-01-23T09:38:42.848Z,495
2019-01-23T09:39:42.907Z,517
2019-01-23T09:40:42.911Z,534
2019-01-23T09:41:42.850Z,540
2019-01-23T09:42:42.813Z,540
2019-01-23T09:43:42.906Z,540
2019-01-23T09:44:42.916Z,551
2019-01-23T09:45:42.835Z,556
2019-01-23T09:46:42.840Z,545
2019-01-23T09:47:42.977Z,556
2019-01-23T09:48:42.834Z,562
2019-01-23T09:49:42.841Z,568
2019-01-23T09:50:42.837Z,568
2019-01-23T09:51:42.844Z,568
2019-01-23T09:52:42.925Z,568
2019-01-23T09:53:42.855Z,556
2019-01-23T09:54:42.925Z,562
2019-01-23T09:55:42.874Z,579
2019-01-23T09:56:42.854Z,585
2019-01-23T09:57:42.928Z,568
2019-01-23T09:58:42.863Z,528
2019-01-23T09:59:42.886Z,517
2019-01-23T10:00:43.030Z,511
2019-01-23T10:01:42.864Z,483
2019-01-23T10:02:42.862Z,438
2019-01-23T10:03:42.928Z,416
2019-01-23T10:04:42.935Z,405
2019-01-23T10:05:42.947Z,399
2019-01-23T10:06:42.895Z,393
2019-01-23T10:07:42.935Z,388
2019-01-23T10:08:42.866Z,388
2019-01-23T10:09:42.873Z,388
2019-01-23T10:10:42.933Z,416
2019-01-23T10:11:42.865Z,444
2019-01-23T10:12:42.944Z,461
2019-01-23T10:13:42.873Z,483
2019-01-23T10:14:42.942Z,506
2019-01-23T10:15:42.873Z,517
2019-01-23T10:16:42.876Z,540
2019-01-23T10:17:42.953Z,551
2019-01-23T10:18:42.933Z,545
2019-01-23T10:19:42.883Z,556
2019-01-23T10:20:42.942Z,562
2019-01-23T10:21:42.877Z,556
2019-01-23T10:22:42.943Z,528
2019-01-23T10:23:42.893Z,506
2019-01-23T10:24:42.876Z,483
2019-01-23T10:25:42.876Z,450
2019-01-23T10:26:42.877Z,421
2019-01-23T10:27:42.951Z,393
2019-01-23T10:28:42.948Z,376
2019-01-23T10:29:42.947Z,376
2019-01-23T10:30:42.880Z,371
2019-01-23T10:31:42.954Z,360
2019-01-23T10:32:42.893Z,360
2019-01-23T10:33:42.952Z,360
2019-01-23T10:34:42.883Z,371
2019-01-23T10:35:42.959Z,371
2019-01-23T10:36:42.969Z,371
2019-01-23T10:37:42.961Z,371
2019-01-23T10:38:42.954Z,371
2019-01-23T10:39:42.951Z,382
2019-01-23T10:40:42.909Z,393
2019-01-23T10:41:42.887Z,399
2019-01-23T10:42:42.962Z,405
2019-01-23T10:43:42.925Z,410
2019-01-23T10:44:42.893Z,416
2019-01-23T10:45:43.018Z,433
2019-01-23T10:46:42.844Z,444
2019-01-23T10:47:42.965Z,450
2019-01-23T10:48:42.889Z,478
2019-01-23T10:49:42.896Z,500
2019-01-23T10:50:42.971Z,483
2019-01-23T10:51:42.961Z,478
2019-01-23T10:52:42.880Z,466
2019-01-23T10:53:42.959Z,455
2019-01-23T10:54:42.882Z,444
2019-01-23T10:55:42.967Z,427
2019-01-23T10:56:42.891Z,416
2019-01-23T10:57:42.870Z,405
2019-01-23T10:58:42.961Z,399
2019-01-23T10:59:42.872Z,388
2019-01-23T11:00:42.848Z,382
2019-01-23T11:01:42.872Z,382
2019-01-23T11:02:42.901Z,376
2019-01-23T11:03:42.985Z,376
2019-01-23T11:04:42.918Z,376
2019-01-23T11:05:42.969Z,382
2019-01-23T11:06:42.972Z,388
2019-01-23T11:07:42.904Z,399
2019-01-23T11:08:43.011Z,416
2019-01-23T11:09:42.979Z,433
2019-01-23T11:10:43.009Z,438
2019-01-23T11:11:42.975Z,438
2019-01-23T11:12:42.911Z,416
2019-01-23T11:13:42.925Z,410
2019-01-23T11:14:42.915Z,421
2019-01-23T11:15:42.914Z,461
2019-01-23T11:16:42.914Z,489
2019-01-23T11:17:42.989Z,495
2019-01-23T11:18:42.934Z,506
2019-01-23T11:19:42.912Z,511
2019-01-23T11:20:42.986Z,495
2019-01-23T11:21:42.996Z,483
2019-01-23T11:22:42.987Z,478
2019-01-23T11:23:42.913Z,472
2019-01-23T11:24:43.008Z,455
2019-01-23T11:25:43.000Z,427
2019-01-23T11:26:42.917Z,393
2019-01-23T11:27:42.989Z,393
2019-01-23T11:28:42.996Z,388
2019-01-23T11:29:42.995Z,382
2019-01-23T11:30:42.993Z,382
2019-01-23T11:31:42.933Z,382
2019-01-23T11:32:43.050Z,388
2019-01-23T11:33:42.926Z,393
2019-01-23T11:34:42.934Z,416
2019-01-23T11:35:43.000Z,433
2019-01-23T11:36:42.935Z,450
2019-01-23T11:37:42.995Z,466
2019-01-23T11:38:42.927Z,478
2019-01-23T11:39:43.015Z,489
2019-01-23T11:40:42.946Z,500
2019-01-23T11:41:42.962Z,523
2019-01-23T11:42:42.969Z,523
2019-01-23T11:43:42.945Z,523
2019-01-23T11:44:43.013Z,523
2019-01-23T11:45:42.934Z,528
2019-01-23T11:46:42.928Z,534
2019-01-23T11:47:43.027Z,528
2019-01-23T11:48:43.005Z,534
2019-01-23T11:49:43.069Z,545
2019-01-23T11:50:43.004Z,556
2019-01-23T11:51:42.945Z,551
2019-01-23T11:52:42.933Z,545
2019-01-23T11:53:42.942Z,534
2019-01-23T11:54:43.016Z,534
2019-01-23T11:55:42.947Z,528
2019-01-23T11:56:43.016Z,523
2019-01-23T11:57:42.945Z,511
2019-01-23T11:58:43.015Z,495
2019-01-23T11:59:43.013Z,483
2019-01-23T12:00:42.946Z,472
2019-01-23T12:01:42.946Z,455
2019-01-23T12:02:42.935Z,450
2019-01-23T12:03:42.932Z,444
2019-01-23T12:04:43.010Z,438
2019-01-23T12:05:42.918Z,438
2019-01-23T12:06:42.944Z,438
2019-01-23T12:07:42.943Z,450
2019-01-23T12:08:42.940Z,461
2019-01-23T12:09:43.000Z,472
2019-01-23T12:10:43.038Z,495
2019-01-23T12:11:42.956Z,506
2019-01-23T12:12:43.011Z,511
2019-01-23T12:13:42.970Z,517
2019-01-23T12:14:43.031Z,523
2019-01-23T12:15:43.021Z,528
2019-01-23T12:16:43.019Z,540
2019-01-23T12:17:42.954Z,540
2019-01-23T12:18:43.023Z,540
2019-01-23T12:19:43.040Z,534
2019-01-23T12:20:43.041Z,528
2019-01-23T12:21:42.958Z,511
2019-01-23T12:22:43.029Z,506
2019-01-23T12:23:43.027Z,506
2019-01-23T12:24:42.979Z,495
2019-01-23T12:25:42.963Z,500
2019-01-23T12:26:43.049Z,506
2019-01-23T12:27:42.961Z,506
2019-01-23T12:28:43.145Z,500
2019-01-23T12:29:43.061Z,506
2019-01-23T12:30:42.963Z,511
2019-01-23T12:31:42.966Z,523
2019-01-23T12:32:43.039Z,534
2019-01-23T12:33:42.962Z,545
2019-01-23T12:34:43.036Z,556
2019-01-23T12:35:42.969Z,568
2019-01-23T12:36:43.036Z,590
2019-01-23T12:37:42.967Z,607
2019-01-23T12:38:42.976Z,618
2019-01-23T12:39:43.040Z,624
2019-01-23T12:40:43.038Z,618
2019-01-23T12:41:43.042Z,618
2019-01-23T12:42:42.979Z,618
2019-01-23T12:43:42.965Z,624
2019-01-23T12:44:43.046Z,635
2019-01-23T12:45:42.960Z,635
2019-01-23T12:46:42.962Z,624
2019-01-23T12:47:43.038Z,624
2019-01-23T12:48:43.036Z,624
2019-01-23T12:49:42.950Z,630
2019-01-23T12:50:43.039Z,635
2019-01-23T12:51:42.960Z,646
2019-01-23T12:52:42.974Z,658
2019-01-23T12:53:43.040Z,646
2019-01-23T12:54:43.037Z,641
2019-01-23T12:55:43.005Z,624
2019-01-23T12:56:42.924Z,618
2019-01-23T12:57:43.048Z,624
2019-01-23T12:58:43.046Z,624
2019-01-23T12:59:42.968Z,630
2019-01-23T13:00:42.958Z,635
2019-01-23T13:01:43.039Z,635
2019-01-23T13:02:43.049Z,635
2019-01-23T13:03:42.974Z,646
2019-01-23T13:04:42.977Z,658
2019-01-23T13:05:42.972Z,680
2019-01-23T13:06:43.221Z,686
2019-01-23T13:07:42.974Z,686
2019-01-23T13:08:43.061Z,680
2019-01-23T13:09:42.963Z,691
2019-01-23T13:10:42.963Z,697
2019-01-23T13:11:42.947Z,691
2019-01-23T13:12:42.978Z,675
2019-01-23T13:13:43.054Z,646
2019-01-23T13:14:42.981Z,624
2019-01-23T13:15:42.999Z,607
2019-01-23T13:16:43.060Z,596
2019-01-23T13:17:43.055Z,596
2019-01-23T13:18:42.985Z,601
2019-01-23T13:19:43.067Z,607
2019-01-23T13:20:42.983Z,607
2019-01-23T13:21:42.990Z,596
2019-01-23T13:22:43.059Z,585
2019-01-23T13:23:43.006Z,579
2019-01-23T13:24:43.054Z,585
2019-01-23T13:25:43.031Z,585
2019-01-23T13:26:43.013Z,579
2019-01-23T13:27:43.062Z,573
2019-01-23T13:28:43.027Z,568
2019-01-23T13:29:43.065Z,568
2019-01-23T13:30:43.028Z,573
2019-01-23T13:31:49.050Z,573
2019-01-23T13:32:43.059Z,579
2019-01-23T13:33:43.147Z,590
2019-01-23T13:34:43.043Z,596
2019-01-23T13:35:43.010Z,596
2019-01-23T13:36:43.082Z,596
2019-01-23T13:37:43.010Z,590
2019-01-23T13:38:43.009Z,585
2019-01-23T13:39:43.174Z,585
2019-01-23T13:40:43.016Z,579
2019-01-23T13:41:43.016Z,573
2019-01-23T13:42:43.086Z,573
2019-01-23T13:43:43.011Z,573
2019-01-23T13:44:43.089Z,573
2019-01-23T13:45:43.011Z,573
2019-01-23T13:46:43.019Z,579
2019-01-23T13:47:43.091Z,568
2019-01-23T13:48:43.085Z,562
2019-01-23T13:49:43.031Z,562
2019-01-23T13:50:43.091Z,562
2019-01-23T13:51:43.022Z,562
2019-01-23T13:52:43.095Z,568
2019-01-23T13:53:43.073Z,568
2019-01-23T13:54:43.100Z,568
2019-01-23T13:55:43.021Z,568
2019-01-23T13:56:43.022Z,573
2019-01-23T13:57:43.099Z,562
2019-01-23T13:58:43.095Z,551
2019-01-23T13:59:43.023Z,545
2019-01-23T14:00:43.053Z,534
2019-01-23T14:01:43.098Z,528
2019-01-23T14:02:43.037Z,523
2019-01-23T14:03:43.051Z,517
2019-01-23T14:04:43.055Z,506
2019-01-23T14:05:43.061Z,506
2019-01-23T14:06:42.966Z,506
2019-01-23T14:07:43.037Z,500
2019-01-23T14:08:42.996Z,495
2019-01-23T14:09:43.080Z,489
2019-01-23T14:10:43.003Z,478
2019-01-23T14:11:43.091Z,478
2019-01-23T14:12:42.980Z,472
2019-01-23T14:13:43.094Z,466
2019-01-23T14:14:43.094Z,461
2019-01-23T14:15:43.023Z,455
2019-01-23T14:16:43.026Z,455
2019-01-23T14:17:43.025Z,455
2019-01-23T14:18:43.048Z,450
2019-01-23T14:19:43.101Z,450